sensor_id;sensor_type;location;lat;lon;timestamp;temperature;humidity
5743;DHT22;2896;53.500;10.020;2022-11-21T00:00:23;-1.20;1.00
5743;DHT22;2896;53.500;10.020;2022-11-21T00:02:49;-1.20;1.00
5743;DHT22;2896;53.500;10.020;2022-11-21T00:05:16;-1.30;99.90
5743;DHT22;2896;53.500;10.020;2022-11-21T00:07:43;-1.30;99.90
5743;DHT22;2896;53.500;10.020;2022-11-21T00:10:11;-1.40;1.00
5743;DHT22;2896;53.500;10.020;2022-11-21T00:12:37;-1.40;99.90
5743;DHT22;2896;53.500;10.020;2022-11-21T00:15:05;-1.50;99.90
5743;DHT22;2896;53.500;10.020;2022-11-21T00:17:33;-1.50;99.90
5743;DHT22;2896;53.500;10.020;2022-11-21T00:20:00;-1.50;99.90
5743;DHT22;2896;53.500;10.020;2022-11-21T00:22:27;-1.60;99.90
5743;DHT22;2896;53.500;10.020;2022-11-21T00:24:53;-1.70;1.00
5743;DHT22;2896;53.500;10.020;2022-11-21T00:27:23;-1.70;1.00
5743;DHT22;2896;53.500;10.020;2022-11-21T00:29:50;-1.80;1.00
5743;DHT22;2896;53.500;10.020;2022-11-21T00:32:16;-1.90;99.90
5743;DHT22;2896;53.500;10.020;2022-11-21T00:34:44;-1.70;1.00
5743;DHT22;2896;53.500;10.020;2022-11-21T00:37:11;-1.90;21.00
5743;DHT22;2896;53.500;10.020;2022-11-21T00:39:37;-1.90;99.90
5743;DHT22;2896;53.500;10.020;2022-11-21T00:42:04;-2.00;98.10
5743;DHT22;2896;53.500;10.020;2022-11-21T00:44:30;-2.10;99.90
5743;DHT22;2896;53.500;10.020;2022-11-21T00:46:57;-2.10;99.90
5743;DHT22;2896;53.500;10.020;2022-11-21T00:49:24;-2.20;99.90
5743;DHT22;2896;53.500;10.020;2022-11-21T00:51:52;-2.10;1.00
5743;DHT22;2896;53.500;10.020;2022-11-21T00:54:18;-2.20;99.90
5743;DHT22;2896;53.500;10.020;2022-11-21T00:56:45;-2.20;1.00
5743;DHT22;2896;53.500;10.020;2022-11-21T00:59:11;-2.20;90.20
5743;DHT22;2896;53.500;10.020;2022-11-21T01:01:38;-2.20;1.00
5743;DHT22;2896;53.500;10.020;2022-11-21T01:04:05;-2.20;99.90
5743;DHT22;2896;53.500;10.020;2022-11-21T01:06:31;-2.30;1.00
5743;DHT22;2896;53.500;10.020;2022-11-21T01:08:59;-2.20;1.00
5743;DHT22;2896;53.500;10.020;2022-11-21T01:11:26;-2.20;99.90
5743;DHT22;2896;53.500;10.020;2022-11-21T01:13:53;-2.30;1.00
5743;DHT22;2896;53.500;10.020;2022-11-21T01:16:22;-2.30;99.90
5743;DHT22;2896;53.500;10.020;2022-11-21T01:18:49;-2.20;1.00
5743;DHT22;2896;53.500;10.020;2022-11-21T01:21:17;-2.20;1.00
5743;DHT22;2896;53.500;10.020;2022-11-21T01:23:44;-2.30;75.70
5743;DHT22;2896;53.500;10.020;2022-11-21T01:26:14;-2.30;99.90
5743;DHT22;2896;53.500;10.020;2022-11-21T01:28:41;-2.20;99.90
5743;DHT22;2896;53.500;10.020;2022-11-21T01:31:09;-2.20;99.90
5743;DHT22;2896;53.500;10.020;2022-11-21T01:33:37;-2.30;99.90
5743;DHT22;2896;53.500;10.020;2022-11-21T01:36:08;-2.30;99.90
5743;DHT22;2896;53.500;10.020;2022-11-21T01:38:35;-2.20;99.90
5743;DHT22;2896;53.500;10.020;2022-11-21T01:41:02;-2.10;99.90
5743;DHT22;2896;53.500;10.020;2022-11-21T01:43:30;-2.00;99.90
5743;DHT22;2896;53.500;10.020;2022-11-21T01:45:58;-1.90;99.90
5743;DHT22;2896;53.500;10.020;2022-11-21T01:48:29;-1.80;99.90
5743;DHT22;2896;53.500;10.020;2022-11-21T01:50:59;-1.80;99.90
5743;DHT22;2896;53.500;10.020;2022-11-21T01:53:28;-1.70;99.90
5743;DHT22;2896;53.500;10.020;2022-11-21T01:55:55;-1.60;99.90
5743;DHT22;2896;53.500;10.020;2022-11-21T01:58:22;-1.50;99.90
5743;DHT22;2896;53.500;10.020;2022-11-21T02:00:50;-1.60;99.90
5743;DHT22;2896;53.500;10.020;2022-11-21T02:03:20;-1.40;99.90
5743;DHT22;2896;53.500;10.020;2022-11-21T02:05:51;-1.40;99.90
5743;DHT22;2896;53.500;10.020;2022-11-21T02:08:20;-1.30;99.90
5743;DHT22;2896;53.500;10.020;2022-11-21T02:10:55;-1.30;99.90
5743;DHT22;2896;53.500;10.020;2022-11-21T02:13:24;-1.30;99.90
5743;DHT22;2896;53.500;10.020;2022-11-21T02:15:52;-1.30;99.90
5743;DHT22;2896;53.500;10.020;2022-11-21T02:18:19;-1.20;99.90
5743;DHT22;2896;53.500;10.020;2022-11-21T02:20:50;-1.30;99.90
5743;DHT22;2896;53.500;10.020;2022-11-21T02:23:24;-1.20;99.90
5743;DHT22;2896;53.500;10.020;2022-11-21T02:25:54;-1.20;99.90
5743;DHT22;2896;53.500;10.020;2022-11-21T02:28:21;-1.20;99.90
5743;DHT22;2896;53.500;10.020;2022-11-21T02:30:49;-1.30;99.90
5743;DHT22;2896;53.500;10.020;2022-11-21T02:33:16;-1.30;99.90
5743;DHT22;2896;53.500;10.020;2022-11-21T02:35:43;-1.40;99.90
5743;DHT22;2896;53.500;10.020;2022-11-21T02:38:15;-1.40;99.90
5743;DHT22;2896;53.500;10.020;2022-11-21T02:40:47;-1.50;99.90
5743;DHT22;2896;53.500;10.020;2022-11-21T02:43:21;-1.50;99.90
5743;DHT22;2896;53.500;10.020;2022-11-21T02:45:48;-1.60;99.90
5743;DHT22;2896;53.500;10.020;2022-11-21T02:48:15;-1.50;99.90
5743;DHT22;2896;53.500;10.020;2022-11-21T02:50:43;-1.50;99.90
5743;DHT22;2896;53.500;10.020;2022-11-21T02:53:12;-1.60;99.90
5743;DHT22;2896;53.500;10.020;2022-11-21T02:55:39;-1.70;99.90
5743;DHT22;2896;53.500;10.020;2022-11-21T02:58:05;-1.70;99.90
5743;DHT22;2896;53.500;10.020;2022-11-21T03:00:35;-1.70;99.90
5743;DHT22;2896;53.500;10.020;2022-11-21T03:03:02;-1.70;99.90
5743;DHT22;2896;53.500;10.020;2022-11-21T03:05:29;-1.70;99.90
5743;DHT22;2896;53.500;10.020;2022-11-21T03:07:56;-1.60;99.90
5743;DHT22;2896;53.500;10.020;2022-11-21T03:10:22;-1.70;99.90
5743;DHT22;2896;53.500;10.020;2022-11-21T03:12:49;-1.60;99.90
5743;DHT22;2896;53.500;10.020;2022-11-21T03:15:25;-1.50;99.90
5743;DHT22;2896;53.500;10.020;2022-11-21T03:17:53;-1.40;99.90
5743;DHT22;2896;53.500;10.020;2022-11-21T03:20:20;-1.50;99.90
5743;DHT22;2896;53.500;10.020;2022-11-21T03:22:47;-1.40;99.90
5743;DHT22;2896;53.500;10.020;2022-11-21T03:25:14;-1.50;99.90
5743;DHT22;2896;53.500;10.020;2022-11-21T03:27:41;-1.50;99.90
5743;DHT22;2896;53.500;10.020;2022-11-21T03:30:09;-1.40;99.90
5743;DHT22;2896;53.500;10.020;2022-11-21T03:32:36;-1.60;99.90
5743;DHT22;2896;53.500;10.020;2022-11-21T03:35:04;-1.50;99.90
5743;DHT22;2896;53.500;10.020;2022-11-21T03:37:31;-1.60;99.90
5743;DHT22;2896;53.500;10.020;2022-11-21T03:39:58;-1.60;99.90
5743;DHT22;2896;53.500;10.020;2022-11-21T03:42:24;-1.60;99.90
5743;DHT22;2896;53.500;10.020;2022-11-21T03:44:51;-1.50;99.90
5743;DHT22;2896;53.500;10.020;2022-11-21T03:47:17;-1.50;99.90
5743;DHT22;2896;53.500;10.020;2022-11-21T03:49:44;-1.60;99.90
5743;DHT22;2896;53.500;10.020;2022-11-21T03:52:12;-1.50;99.90
5743;DHT22;2896;53.500;10.020;2022-11-21T03:54:39;-1.50;99.90
5743;DHT22;2896;53.500;10.020;2022-11-21T03:57:05;-1.60;99.90
5743;DHT22;2896;53.500;10.020;2022-11-21T03:59:32;-1.50;99.90
5743;DHT22;2896;53.500;10.020;2022-11-21T04:01:58;-1.60;99.90
5743;DHT22;2896;53.500;10.020;2022-11-21T04:04:25;-1.70;99.90
5743;DHT22;2896;53.500;10.020;2022-11-21T04:06:52;-1.60;99.90
5743;DHT22;2896;53.500;10.020;2022-11-21T04:09:20;-1.60;99.90
5743;DHT22;2896;53.500;10.020;2022-11-21T04:11:46;-1.70;99.90
5743;DHT22;2896;53.500;10.020;2022-11-21T04:14:13;-1.50;99.90
5743;DHT22;2896;53.500;10.020;2022-11-21T04:16:39;-1.60;99.90
5743;DHT22;2896;53.500;10.020;2022-11-21T04:19:06;-1.60;99.90
5743;DHT22;2896;53.500;10.020;2022-11-21T04:21:33;-1.70;99.90
5743;DHT22;2896;53.500;10.020;2022-11-21T04:23:59;-1.70;99.90
5743;DHT22;2896;53.500;10.020;2022-11-21T04:26:27;-1.60;99.90
5743;DHT22;2896;53.500;10.020;2022-11-21T04:28:54;-1.70;99.90
5743;DHT22;2896;53.500;10.020;2022-11-21T04:31:20;-1.80;99.90
5743;DHT22;2896;53.500;10.020;2022-11-21T04:33:47;-1.70;99.90
5743;DHT22;2896;53.500;10.020;2022-11-21T04:36:14;-1.80;99.90
5743;DHT22;2896;53.500;10.020;2022-11-21T04:38:40;-1.70;99.90
5743;DHT22;2896;53.500;10.020;2022-11-21T04:41:07;-1.70;99.90
5743;DHT22;2896;53.500;10.020;2022-11-21T04:43:35;-1.70;99.90
5743;DHT22;2896;53.500;10.020;2022-11-21T04:46:03;-1.70;99.90
5743;DHT22;2896;53.500;10.020;2022-11-21T04:48:30;-1.80;99.90
5743;DHT22;2896;53.500;10.020;2022-11-21T04:50:57;-1.80;99.90
5743;DHT22;2896;53.500;10.020;2022-11-21T04:53:23;-1.80;99.90
5743;DHT22;2896;53.500;10.020;2022-11-21T04:55:50;-1.80;99.90
5743;DHT22;2896;53.500;10.020;2022-11-21T04:58:17;-1.80;99.90
5743;DHT22;2896;53.500;10.020;2022-11-21T05:00:45;-1.80;99.90
5743;DHT22;2896;53.500;10.020;2022-11-21T05:03:11;-1.90;99.90
5743;DHT22;2896;53.500;10.020;2022-11-21T05:05:38;-1.80;99.90
5743;DHT22;2896;53.500;10.020;2022-11-21T05:08:05;-1.80;99.90
5743;DHT22;2896;53.500;10.020;2022-11-21T05:10:32;-1.80;99.90
5743;DHT22;2896;53.500;10.020;2022-11-21T05:13:18;-1.80;99.90
5743;DHT22;2896;53.500;10.020;2022-11-21T05:15:48;-1.80;99.90
5743;DHT22;2896;53.500;10.020;2022-11-21T05:18:16;-1.80;99.90
5743;DHT22;2896;53.500;10.020;2022-11-21T05:20:44;-1.80;99.90
5743;DHT22;2896;53.500;10.020;2022-11-21T05:23:10;-1.90;99.90
5743;DHT22;2896;53.500;10.020;2022-11-21T05:25:37;-1.80;99.90
5743;DHT22;2896;53.500;10.020;2022-11-21T05:28:04;-1.90;99.90
5743;DHT22;2896;53.500;10.020;2022-11-21T05:30:30;-1.80;99.90
5743;DHT22;2896;53.500;10.020;2022-11-21T05:32:58;-2.00;99.90
5743;DHT22;2896;53.500;10.020;2022-11-21T05:35:25;-1.90;99.90
5743;DHT22;2896;53.500;10.020;2022-11-21T05:37:55;-1.90;99.90
5743;DHT22;2896;53.500;10.020;2022-11-21T05:40:22;-2.00;99.90
5743;DHT22;2896;53.500;10.020;2022-11-21T05:42:49;-4.20;99.90
5743;DHT22;2896;53.500;10.020;2022-11-21T05:45:33;-2.10;99.90
5743;DHT22;2896;53.500;10.020;2022-11-21T05:48:01;-2.00;99.90
5743;DHT22;2896;53.500;10.020;2022-11-21T05:50:32;-2.00;99.90
5743;DHT22;2896;53.500;10.020;2022-11-21T05:53:00;-2.10;99.90
5743;DHT22;2896;53.500;10.020;2022-11-21T05:55:27;-2.20;99.90
5743;DHT22;2896;53.500;10.020;2022-11-21T05:57:57;-2.20;99.90
5743;DHT22;2896;53.500;10.020;2022-11-21T06:00:24;-2.20;99.90
5743;DHT22;2896;53.500;10.020;2022-11-21T06:02:51;-2.20;99.90
5743;DHT22;2896;53.500;10.020;2022-11-21T06:05:37;-2.10;99.90
5743;DHT22;2896;53.500;10.020;2022-11-21T06:08:03;-2.20;99.90
5743;DHT22;2896;53.500;10.020;2022-11-21T06:10:30;-2.10;99.90
5743;DHT22;2896;53.500;10.020;2022-11-21T06:12:58;-2.10;99.90
5743;DHT22;2896;53.500;10.020;2022-11-21T06:15:25;-2.20;99.90
5743;DHT22;2896;53.500;10.020;2022-11-21T06:17:52;-2.20;99.90
5743;DHT22;2896;53.500;10.020;2022-11-21T06:20:19;-2.10;99.90
5743;DHT22;2896;53.500;10.020;2022-11-21T06:22:47;-2.10;99.90
5743;DHT22;2896;53.500;10.020;2022-11-21T06:25:13;-2.10;99.90
5743;DHT22;2896;53.500;10.020;2022-11-21T06:27:40;-2.00;99.90
5743;DHT22;2896;53.500;10.020;2022-11-21T06:30:07;-2.10;99.90
5743;DHT22;2896;53.500;10.020;2022-11-21T06:32:36;-2.00;99.90
5743;DHT22;2896;53.500;10.020;2022-11-21T06:35:03;-2.10;99.90
5743;DHT22;2896;53.500;10.020;2022-11-21T06:37:30;-2.10;99.90
5743;DHT22;2896;53.500;10.020;2022-11-21T06:39:58;-2.20;99.90
5743;DHT22;2896;53.500;10.020;2022-11-21T06:42:25;-2.20;99.90
5743;DHT22;2896;53.500;10.020;2022-11-21T06:44:51;-2.20;99.90
5743;DHT22;2896;53.500;10.020;2022-11-21T06:47:18;-2.20;99.90
5743;DHT22;2896;53.500;10.020;2022-11-21T06:49:45;-2.10;99.90
5743;DHT22;2896;53.500;10.020;2022-11-21T06:52:12;-2.20;99.90
5743;DHT22;2896;53.500;10.020;2022-11-21T06:54:38;-2.20;99.90
5743;DHT22;2896;53.500;10.020;2022-11-21T06:57:07;-2.20;99.90
5743;DHT22;2896;53.500;10.020;2022-11-21T06:59:34;-2.20;99.90
5743;DHT22;2896;53.500;10.020;2022-11-21T07:02:00;-2.10;99.90
5743;DHT22;2896;53.500;10.020;2022-11-21T07:04:27;-2.20;99.90
5743;DHT22;2896;53.500;10.020;2022-11-21T07:06:53;-2.20;99.90
5743;DHT22;2896;53.500;10.020;2022-11-21T07:09:20;-2.10;99.90
5743;DHT22;2896;53.500;10.020;2022-11-21T07:11:47;-2.20;99.90
5743;DHT22;2896;53.500;10.020;2022-11-21T07:14:16;-2.20;99.90
5743;DHT22;2896;53.500;10.020;2022-11-21T07:16:42;-2.10;99.90
5743;DHT22;2896;53.500;10.020;2022-11-21T07:19:08;-2.10;99.90
5743;DHT22;2896;53.500;10.020;2022-11-21T07:21:35;-1.00;99.90
5743;DHT22;2896;53.500;10.020;2022-11-21T07:24:02;-2.20;99.90
5743;DHT22;2896;53.500;10.020;2022-11-21T07:26:29;-2.20;99.90
5743;DHT22;2896;53.500;10.020;2022-11-21T07:28:55;-2.20;99.90
5743;DHT22;2896;53.500;10.020;2022-11-21T07:31:24;-2.20;99.90
5743;DHT22;2896;53.500;10.020;2022-11-21T07:33:51;-2.30;99.90
5743;DHT22;2896;53.500;10.020;2022-11-21T07:36:18;-2.20;99.90
5743;DHT22;2896;53.500;10.020;2022-11-21T07:38:45;-2.20;99.90
5743;DHT22;2896;53.500;10.020;2022-11-21T07:41:12;-2.20;99.90
5743;DHT22;2896;53.500;10.020;2022-11-21T07:43:38;-2.20;99.90
5743;DHT22;2896;53.500;10.020;2022-11-21T07:46:05;-2.20;99.90
5743;DHT22;2896;53.500;10.020;2022-11-21T07:48:33;-2.20;99.90
5743;DHT22;2896;53.500;10.020;2022-11-21T07:51:02;-2.20;99.90
5743;DHT22;2896;53.500;10.020;2022-11-21T07:53:29;-2.20;99.90
5743;DHT22;2896;53.500;10.020;2022-11-21T07:55:57;-2.20;99.90
5743;DHT22;2896;53.500;10.020;2022-11-21T07:58:24;-2.20;99.90
5743;DHT22;2896;53.500;10.020;2022-11-21T08:00:50;-2.30;99.90
5743;DHT22;2896;53.500;10.020;2022-11-21T08:03:17;-2.20;99.90
5743;DHT22;2896;53.500;10.020;2022-11-21T08:05:45;-2.10;99.90
5743;DHT22;2896;53.500;10.020;2022-11-21T08:08:12;-2.20;99.90
5743;DHT22;2896;53.500;10.020;2022-11-21T08:10:41;-2.20;99.90
5743;DHT22;2896;53.500;10.020;2022-11-21T08:13:08;-2.20;99.90
5743;DHT22;2896;53.500;10.020;2022-11-21T08:15:35;-2.30;99.90
5743;DHT22;2896;53.500;10.020;2022-11-21T08:18:06;-2.40;99.90
5743;DHT22;2896;53.500;10.020;2022-11-21T08:20:33;-2.30;99.90
5743;DHT22;2896;53.500;10.020;2022-11-21T08:23:01;-2.30;99.90
5743;DHT22;2896;53.500;10.020;2022-11-21T08:25:28;-2.40;99.90
5743;DHT22;2896;53.500;10.020;2022-11-21T08:27:55;-2.30;99.90
5743;DHT22;2896;53.500;10.020;2022-11-21T08:30:22;-2.10;99.90
5743;DHT22;2896;53.500;10.020;2022-11-21T08:32:48;-2.10;99.90
5743;DHT22;2896;53.500;10.020;2022-11-21T08:35:15;-2.00;99.90
5743;DHT22;2896;53.500;10.020;2022-11-21T08:37:42;-1.80;99.90
5743;DHT22;2896;53.500;10.020;2022-11-21T08:40:10;-1.60;99.90
5743;DHT22;2896;53.500;10.020;2022-11-21T08:42:37;-1.40;99.90
5743;DHT22;2896;53.500;10.020;2022-11-21T08:45:04;-1.40;99.90
5743;DHT22;2896;53.500;10.020;2022-11-21T08:47:31;-1.30;99.90
5743;DHT22;2896;53.500;10.020;2022-11-21T08:49:58;-1.10;99.90
5743;DHT22;2896;53.500;10.020;2022-11-21T08:52:24;-1.00;99.90
5743;DHT22;2896;53.500;10.020;2022-11-21T08:54:51;-0.90;99.90
5743;DHT22;2896;53.500;10.020;2022-11-21T08:57:19;-1.00;99.90
5743;DHT22;2896;53.500;10.020;2022-11-21T08:59:46;-1.10;99.90
5743;DHT22;2896;53.500;10.020;2022-11-21T09:02:12;-1.10;99.90
5743;DHT22;2896;53.500;10.020;2022-11-21T09:04:39;-1.10;99.90
5743;DHT22;2896;53.500;10.020;2022-11-21T09:07:05;-1.00;99.90
5743;DHT22;2896;53.500;10.020;2022-11-21T09:09:32;-0.60;99.90
5743;DHT22;2896;53.500;10.020;2022-11-21T09:12:00;-0.70;99.90
5743;DHT22;2896;53.500;10.020;2022-11-21T09:14:28;-0.60;99.90
5743;DHT22;2896;53.500;10.020;2022-11-21T09:17:12;-0.50;99.90
5743;DHT22;2896;53.500;10.020;2022-11-21T09:19:57;-0.50;99.90
5743;DHT22;2896;53.500;10.020;2022-11-21T09:22:24;-0.50;97.60
5743;DHT22;2896;53.500;10.020;2022-11-21T09:24:50;-0.40;99.90
5743;DHT22;2896;53.500;10.020;2022-11-21T09:27:17;-0.50;34.20
5743;DHT22;2896;53.500;10.020;2022-11-21T09:29:45;-0.50;65.30
5743;DHT22;2896;53.500;10.020;2022-11-21T09:32:11;-0.40;26.10
5743;DHT22;2896;53.500;10.020;2022-11-21T09:34:38;-0.30;1.00
5743;DHT22;2896;53.500;10.020;2022-11-21T09:37:05;-0.10;1.00
5743;DHT22;2896;53.500;10.020;2022-11-21T09:39:31;-0.10;1.00
5743;DHT22;2896;53.500;10.020;2022-11-21T09:42:07;-0.20;99.90
5743;DHT22;2896;53.500;10.020;2022-11-21T09:44:47;0.00;1.00
5743;DHT22;2896;53.500;10.020;2022-11-21T09:47:22;0.00;1.00
5743;DHT22;2896;53.500;10.020;2022-11-21T09:49:55;0.10;1.00
5743;DHT22;2896;53.500;10.020;2022-11-21T09:52:30;0.30;1.00
5743;DHT22;2896;53.500;10.020;2022-11-21T09:55:00;0.40;1.00
5743;DHT22;2896;53.500;10.020;2022-11-21T09:57:31;0.60;1.00
5743;DHT22;2896;53.500;10.020;2022-11-21T10:00:03;0.60;1.00
5743;DHT22;2896;53.500;10.020;2022-11-21T10:02:30;0.80;99.90
5743;DHT22;2896;53.500;10.020;2022-11-21T10:04:56;0.90;1.00
5743;DHT22;2896;53.500;10.020;2022-11-21T10:07:27;1.00;99.90
5743;DHT22;2896;53.500;10.020;2022-11-21T10:10:11;1.00;99.90
5743;DHT22;2896;53.500;10.020;2022-11-21T10:12:50;0.90;99.90
5743;DHT22;2896;53.500;10.020;2022-11-21T10:15:30;1.20;1.00
5743;DHT22;2896;53.500;10.020;2022-11-21T10:18:08;1.30;1.00
5743;DHT22;2896;53.500;10.020;2022-11-21T10:20:51;1.40;1.00
5743;DHT22;2896;53.500;10.020;2022-11-21T10:23:43;1.40;99.90
5743;DHT22;2896;53.500;10.020;2022-11-21T10:26:20;1.50;1.00
5743;DHT22;2896;53.500;10.020;2022-11-21T10:28:50;1.60;73.40
5743;DHT22;2896;53.500;10.020;2022-11-21T10:31:22;1.80;99.90
5743;DHT22;2896;53.500;10.020;2022-11-21T10:33:50;1.90;93.80
5743;DHT22;2896;53.500;10.020;2022-11-21T10:36:25;2.10;1.00
5743;DHT22;2896;53.500;10.020;2022-11-21T10:38:57;2.50;36.70
5743;DHT22;2896;53.500;10.020;2022-11-21T10:41:36;2.60;1.00
5743;DHT22;2896;53.500;10.020;2022-11-21T10:44:12;3.00;99.90
5743;DHT22;2896;53.500;10.020;2022-11-21T10:47:01;3.40;99.90
5743;DHT22;2896;53.500;10.020;2022-11-21T10:49:31;3.80;1.00
5743;DHT22;2896;53.500;10.020;2022-11-21T10:52:04;3.90;1.00
5743;DHT22;2896;53.500;10.020;2022-11-21T10:54:32;4.00;1.00
5743;DHT22;2896;53.500;10.020;2022-11-21T10:57:06;4.10;1.00
5743;DHT22;2896;53.500;10.020;2022-11-21T10:59:36;4.30;1.00
5743;DHT22;2896;53.500;10.020;2022-11-21T11:02:21;4.10;1.00
5743;DHT22;2896;53.500;10.020;2022-11-21T11:04:48;4.30;1.00
5743;DHT22;2896;53.500;10.020;2022-11-21T11:07:35;4.20;1.00
5743;DHT22;2896;53.500;10.020;2022-11-21T11:10:14;4.20;1.00
5743;DHT22;2896;53.500;10.020;2022-11-21T11:12:41;4.10;1.00
5743;DHT22;2896;53.500;10.020;2022-11-21T11:15:26;4.00;1.00
5743;DHT22;2896;53.500;10.020;2022-11-21T11:17:56;3.80;1.00
5743;DHT22;2896;53.500;10.020;2022-11-21T11:20:35;4.00;1.00
5743;DHT22;2896;53.500;10.020;2022-11-21T11:23:24;3.70;99.90
5743;DHT22;2896;53.500;10.020;2022-11-21T11:25:54;4.00;99.90
5743;DHT22;2896;53.500;10.020;2022-11-21T11:28:21;4.20;99.90
5743;DHT22;2896;53.500;10.020;2022-11-21T11:30:50;3.90;99.90
5743;DHT22;2896;53.500;10.020;2022-11-21T11:33:29;3.90;99.90
5743;DHT22;2896;53.500;10.020;2022-11-21T11:36:09;3.80;99.90
5743;DHT22;2896;53.500;10.020;2022-11-21T11:38:37;3.90;99.90
5743;DHT22;2896;53.500;10.020;2022-11-21T11:41:11;3.90;99.90
5743;DHT22;2896;53.500;10.020;2022-11-21T11:43:45;4.20;99.90
5743;DHT22;2896;53.500;10.020;2022-11-21T11:46:39;4.30;99.90
5743;DHT22;2896;53.500;10.020;2022-11-21T11:49:31;4.20;99.90
5743;DHT22;2896;53.500;10.020;2022-11-21T11:52:26;4.00;99.90
5743;DHT22;2896;53.500;10.020;2022-11-21T11:54:58;4.10;99.90
5743;DHT22;2896;53.500;10.020;2022-11-21T11:57:26;4.30;99.90
5743;DHT22;2896;53.500;10.020;2022-11-21T12:00:03;4.40;99.90
5743;DHT22;2896;53.500;10.020;2022-11-21T12:02:42;4.40;99.90
5743;DHT22;2896;53.500;10.020;2022-11-21T12:05:18;4.50;99.90
5743;DHT22;2896;53.500;10.020;2022-11-21T12:07:50;4.50;99.90
5743;DHT22;2896;53.500;10.020;2022-11-21T12:10:25;4.70;99.90
5743;DHT22;2896;53.500;10.020;2022-11-21T12:12:56;4.60;99.90
5743;DHT22;2896;53.500;10.020;2022-11-21T12:15:31;4.70;99.90
5743;DHT22;2896;53.500;10.020;2022-11-21T12:18:22;4.80;99.90
5743;DHT22;2896;53.500;10.020;2022-11-21T12:20:57;4.70;99.90
5743;DHT22;2896;53.500;10.020;2022-11-21T12:23:29;4.70;99.90
5743;DHT22;2896;53.500;10.020;2022-11-21T12:26:04;4.50;99.90
5743;DHT22;2896;53.500;10.020;2022-11-21T12:28:41;4.40;99.90
5743;DHT22;2896;53.500;10.020;2022-11-21T12:31:14;4.50;99.90
5743;DHT22;2896;53.500;10.020;2022-11-21T12:33:50;4.50;99.90
5743;DHT22;2896;53.500;10.020;2022-11-21T12:36:27;4.70;99.90
5743;DHT22;2896;53.500;10.020;2022-11-21T12:39:24;4.70;99.90
5743;DHT22;2896;53.500;10.020;2022-11-21T12:41:55;4.70;99.90
5743;DHT22;2896;53.500;10.020;2022-11-21T12:44:57;4.40;99.90
5743;DHT22;2896;53.500;10.020;2022-11-21T12:47:40;4.60;99.90
5743;DHT22;2896;53.500;10.020;2022-11-21T12:50:34;4.70;99.90
5743;DHT22;2896;53.500;10.020;2022-11-21T12:53:28;4.90;99.90
5743;DHT22;2896;53.500;10.020;2022-11-21T12:56:23;4.60;99.90
5743;DHT22;2896;53.500;10.020;2022-11-21T12:58:54;4.40;99.90
5743;DHT22;2896;53.500;10.020;2022-11-21T13:01:27;4.60;99.90
5743;DHT22;2896;53.500;10.020;2022-11-21T13:03:59;4.60;99.90
5743;DHT22;2896;53.500;10.020;2022-11-21T13:06:29;4.60;99.90
5743;DHT22;2896;53.500;10.020;2022-11-21T13:08:59;4.70;99.90
5743;DHT22;2896;53.500;10.020;2022-11-21T13:11:40;4.70;99.90
5743;DHT22;2896;53.500;10.020;2022-11-21T13:14:30;4.60;99.90
5743;DHT22;2896;53.500;10.020;2022-11-21T13:17:06;4.70;99.90
5743;DHT22;2896;53.500;10.020;2022-11-21T13:19:43;4.30;99.90
5743;DHT22;2896;53.500;10.020;2022-11-21T13:25:12;4.10;99.90
5743;DHT22;2896;53.500;10.020;2022-11-21T13:27:40;4.10;99.90
5743;DHT22;2896;53.500;10.020;2022-11-21T13:30:21;4.10;99.90
5743;DHT22;2896;53.500;10.020;2022-11-21T13:32:49;4.20;99.90
5743;DHT22;2896;53.500;10.020;2022-11-21T13:38:29;4.30;99.90
5743;DHT22;2896;53.500;10.020;2022-11-21T13:40:58;4.20;99.90
5743;DHT22;2896;53.500;10.020;2022-11-21T13:43:42;4.20;99.90
5743;DHT22;2896;53.500;10.020;2022-11-21T13:46:09;3.80;99.90
5743;DHT22;2896;53.500;10.020;2022-11-21T13:49:00;3.70;99.90
5743;DHT22;2896;53.500;10.020;2022-11-21T13:51:47;2.50;99.90
5743;DHT22;2896;53.500;10.020;2022-11-21T13:57:45;3.60;99.90
5743;DHT22;2896;53.500;10.020;2022-11-21T14:00:27;3.70;99.90
5743;DHT22;2896;53.500;10.020;2022-11-21T14:06:31;3.70;99.90
5743;DHT22;2896;53.500;10.020;2022-11-21T14:09:24;3.20;99.90
5743;DHT22;2896;53.500;10.020;2022-11-21T14:11:54;3.20;99.90
5743;DHT22;2896;53.500;10.020;2022-11-21T14:14:34;3.10;99.90
5743;DHT22;2896;53.500;10.020;2022-11-21T14:17:27;3.00;99.90
5743;DHT22;2896;53.500;10.020;2022-11-21T14:19:59;3.00;99.90
5743;DHT22;2896;53.500;10.020;2022-11-21T14:22:30;2.90;99.90
5743;DHT22;2896;53.500;10.020;2022-11-21T14:24:58;2.80;99.90
5743;DHT22;2896;53.500;10.020;2022-11-21T14:27:28;2.80;99.90
5743;DHT22;2896;53.500;10.020;2022-11-21T14:29:57;2.70;99.90
5743;DHT22;2896;53.500;10.020;2022-11-21T14:32:27;2.50;99.90
5743;DHT22;2896;53.500;10.020;2022-11-21T14:35:09;2.40;99.90
5743;DHT22;2896;53.500;10.020;2022-11-21T14:37:39;2.40;99.90
5743;DHT22;2896;53.500;10.020;2022-11-21T14:40:11;2.40;99.90
5743;DHT22;2896;53.500;10.020;2022-11-21T14:42:38;2.40;99.90
5743;DHT22;2896;53.500;10.020;2022-11-21T14:45:12;2.30;99.90
5743;DHT22;2896;53.500;10.020;2022-11-21T14:47:45;2.10;99.90
5743;DHT22;2896;53.500;10.020;2022-11-21T14:50:21;2.10;99.90
5743;DHT22;2896;53.500;10.020;2022-11-21T14:52:48;1.90;99.90
5743;DHT22;2896;53.500;10.020;2022-11-21T14:55:24;2.00;99.90
5743;DHT22;2896;53.500;10.020;2022-11-21T14:57:51;1.80;99.90
5743;DHT22;2896;53.500;10.020;2022-11-21T15:00:21;1.70;99.90
5743;DHT22;2896;53.500;10.020;2022-11-21T15:02:51;1.70;99.90
5743;DHT22;2896;53.500;10.020;2022-11-21T15:05:18;1.50;99.90
5743;DHT22;2896;53.500;10.020;2022-11-21T15:07:46;1.30;99.90
5743;DHT22;2896;53.500;10.020;2022-11-21T15:10:13;1.30;99.90
5743;DHT22;2896;53.500;10.020;2022-11-21T15:12:45;1.10;99.90
5743;DHT22;2896;53.500;10.020;2022-11-21T15:15:24;1.20;99.90
5743;DHT22;2896;53.500;10.020;2022-11-21T15:17:54;1.00;99.90
5743;DHT22;2896;53.500;10.020;2022-11-21T15:20:21;1.00;99.90
5743;DHT22;2896;53.500;10.020;2022-11-21T15:22:49;0.90;99.90
5743;DHT22;2896;53.500;10.020;2022-11-21T15:25:18;0.70;99.90
5743;DHT22;2896;53.500;10.020;2022-11-21T15:27:46;0.80;99.90
5743;DHT22;2896;53.500;10.020;2022-11-21T15:30:28;0.50;99.90
5743;DHT22;2896;53.500;10.020;2022-11-21T15:32:59;0.50;99.90
5743;DHT22;2896;53.500;10.020;2022-11-21T15:35:27;0.40;99.90
5743;DHT22;2896;53.500;10.020;2022-11-21T15:37:54;0.30;99.90
5743;DHT22;2896;53.500;10.020;2022-11-21T15:40:21;0.20;99.90
5743;DHT22;2896;53.500;10.020;2022-11-21T15:42:47;0.10;99.90
5743;DHT22;2896;53.500;10.020;2022-11-21T15:45:24;0.10;99.90
5743;DHT22;2896;53.500;10.020;2022-11-21T15:47:52;0.10;99.90
5743;DHT22;2896;53.500;10.020;2022-11-21T15:50:21;0.10;99.90
5743;DHT22;2896;53.500;10.020;2022-11-21T15:52:50;0.10;99.90
5743;DHT22;2896;53.500;10.020;2022-11-21T15:55:19;0.00;99.90
5743;DHT22;2896;53.500;10.020;2022-11-21T15:57:46;-0.10;99.90
5743;DHT22;2896;53.500;10.020;2022-11-21T16:00:13;-0.30;99.90
5743;DHT22;2896;53.500;10.020;2022-11-21T16:02:41;-0.30;1.00
5743;DHT22;2896;53.500;10.020;2022-11-21T16:05:12;-0.30;1.00
5743;DHT22;2896;53.500;10.020;2022-11-21T16:07:40;-0.30;1.00
5743;DHT22;2896;53.500;10.020;2022-11-21T16:10:07;-0.40;1.00
5743;DHT22;2896;53.500;10.020;2022-11-21T16:12:34;-0.40;1.00
5743;DHT22;2896;53.500;10.020;2022-11-21T16:15:01;-0.40;1.00
5743;DHT22;2896;53.500;10.020;2022-11-21T16:17:27;-0.40;1.00
5743;DHT22;2896;53.500;10.020;2022-11-21T16:19:54;-0.30;1.00
5743;DHT22;2896;53.500;10.020;2022-11-21T16:22:22;-0.30;1.00
5743;DHT22;2896;53.500;10.020;2022-11-21T16:24:48;-0.40;1.00
5743;DHT22;2896;53.500;10.020;2022-11-21T16:27:15;-0.50;1.00